Time;durP1;ratioP1;P1;durP2;ratioP2;P2;SDS_P1;SDS_P2;PMS_P1;PMS_P2;Temp;Humidity;BMP_temperature;BMP_pressure;BME280_temperature;BME280_humidity;BME280_pressure;Samples;Min_cycle;Max_cycle;Signal;HPM_P1;HPM_P2
2022/09/15 00:01:41;;;;;;;;;;;;;;;16.21;80.02;99873.81;5007996;28;19921;-68
2022/09/15 00:04:07;;;;;;;;;;;;;;;16.24;79.24;99868.22;5006241;28;20340;-68
2022/09/15 00:06:34;;;;;;;;;;;;;;;15.74;81.70;99871.84;4999549;28;19921;-68
2022/09/15 00:09:01;;;;;;;;;;;;;;;15.93;80.89;99871.88;4972240;28;19926;-68
2022/09/15 00:11:28;;;;;;;;;;;;;;;15.94;80.35;99868.28;4968044;28;20004;-68
2022/09/15 00:13:58;;;;;;;;;;;;;;;15.48;82.59;99874.06;4975278;28;20378;-68
2022/09/15 00:16:25;;;;;;;;;;;;;;;15.31;83.27;99870.19;5001304;28;19921;-68
2022/09/15 00:18:51;;;;;;;;;;;;;;;15.38;82.61;99868.69;5008446;28;20946;-68
2022/09/15 00:21:19;;;;;;;;;;;;;;;15.54;81.45;99870.91;5006502;28;20290;-68
2022/09/15 00:23:45;;;;;;;;;;;;;;;15.74;80.44;99874.47;5007706;28;19925;-67
2022/09/15 00:26:13;;;;;;;;;;;;;;;15.76;79.93;99867.25;5006406;28;19957;-67
2022/09/15 00:28:40;;;;;;;;;;;;;;;15.68;80.09;99878.47;5007030;28;19921;-67
2022/09/15 00:31:09;;;;;;;;;;;;;;;15.75;79.53;99878.78;5007790;28;19979;-67
2022/09/15 00:33:35;;;;;;;;;;;;;;;15.64;79.77;99879.72;5007337;28;19929;-68
2022/09/15 00:36:03;;;;;;;;;;;;;;;15.54;79.93;99884.97;5005871;28;20018;-68
2022/09/15 00:38:30;;;;;;;;;;;;;;;15.46;80.64;99882.09;5006527;28;19987;-68
2022/09/15 00:40:57;;;;;;;;;;;;;;;15.56;80.13;99871.59;5004397;28;19964;-68
2022/09/15 00:43:41;;;;;;;;;;;;;;;15.35;80.70;99882.16;5006603;28;19992;-68
2022/09/15 00:46:09;;;;;;;;;;;;;;;14.98;82.33;99873.03;5006767;28;19921;-68
2022/09/15 00:48:37;;;;;;;;;;;;;;;15.22;81.08;99883.34;5002999;28;20417;-67
2022/09/15 00:51:04;;;;;;;;;;;;;;;15.37;80.53;99882.88;5007332;28;20041;-67
2022/09/15 00:53:31;;;;;;;;;;;;;;;15.34;80.63;99875.22;5006946;28;19929;-67
2022/09/15 00:55:58;;;;;;;;;;;;;;;15.62;78.10;99870.25;5005706;28;19921;-67
2022/09/15 00:58:27;;;;;;;;;;;;;;;15.21;79.45;99877.22;5007264;28;19921;-67
2022/09/15 01:00:56;;;;;;;;;;;;;;;15.30;79.22;99880.91;5006415;28;19980;-67
2022/09/15 01:03:24;;;;;;;;;;;;;;;15.16;79.17;99878.56;5005674;28;19921;-67
2022/09/15 01:05:52;;;;;;;;;;;;;;;15.12;80.42;99878.00;5005876;28;20056;-67
2022/09/15 01:08:22;;;;;;;;;;;;;;;15.05;79.70;99875.03;5006733;28;19921;-67
2022/09/15 01:10:50;;;;;;;;;;;;;;;15.01;81.01;99886.81;5005868;28;19921;-67
2022/09/15 01:13:17;;;;;;;;;;;;;;;15.18;80.22;99881.94;5005505;28;20000;-67
2022/09/15 01:15:49;;;;;;;;;;;;;;;14.86;82.15;99884.59;5006295;28;20447;-67
2022/09/15 01:18:18;;;;;;;;;;;;;;;14.67;83.39;99887.09;5006589;28;20014;-67
2022/09/15 01:20:59;;;;;;;;;;;;;;;14.56;84.01;99877.41;5005937;28;19972;-67
2022/09/15 01:23:43;;;;;;;;;;;;;;;14.03;87.53;99876.44;5005648;28;19928;-67
2022/09/15 01:26:24;;;;;;;;;;;;;;;13.90;89.26;99876.56;5005983;28;20305;-67
2022/09/15 01:29:06;;;;;;;;;;;;;;;14.24;87.96;99879.16;5007218;28;19921;-67
2022/09/15 01:33:02;;;;;;;;;;;;;;;14.45;87.17;99883.56;5005613;28;20034;-68
2022/09/15 01:34:25;;;;;;;;;;;;;;;14.08;88.94;99880.38;5004829;28;20008;-67
2022/09/15 01:36:54;;;;;;;;;;;;;;;13.92;89.71;99877.28;5004970;28;20270;-67
2022/09/15 01:39:23;;;;;;;;;;;;;;;14.17;89.41;99883.22;5007448;28;20369;-67
2022/09/15 01:41:51;;;;;;;;;;;;;;;13.89;90.70;99880.16;5007124;28;19929;-67
2022/09/15 01:44:19;;;;;;;;;;;;;;;14.06;90.21;99884.94;5004626;28;19921;-67
2022/09/15 01:46:49;;;;;;;;;;;;;;;13.94;91.07;99879.78;5004387;28;19922;-67
2022/09/15 01:49:17;;;;;;;;;;;;;;;14.15;90.43;99886.00;5005125;28;19921;-67
2022/09/15 01:51:43;;;;;;;;;;;;;;;14.63;88.35;99876.78;5005224;28;19948;-67
2022/09/15 01:54:10;;;;;;;;;;;;;;;14.72;87.83;99882.25;5005567;28;20044;-67
2022/09/15 01:56:36;;;;;;;;;;;;;;;14.66;88.17;99885.41;5007353;28;19999;-67
2022/09/15 01:59:03;;;;;;;;;;;;;;;14.25;89.37;99875.56;5004219;28;19937;-67
2022/09/15 02:01:32;;;;;;;;;;;;;;;14.14;90.63;99873.78;5004732;28;19925;-67
2022/09/15 02:04:02;;;;;;;;;;;;;;;14.02;91.53;99880.03;5005748;28;19925;-67
2022/09/15 02:06:35;;;;;;;;;;;;;;;14.49;88.27;99884.97;5004918;28;19995;-67
2022/09/15 02:09:04;;;;;;;;;;;;;;;14.68;86.33;99876.41;5005373;28;19978;-67
2022/09/15 02:11:30;;;;;;;;;;;;;;;14.80;85.64;99872.75;5004825;28;19971;-67
2022/09/15 02:13:59;;;;;;;;;;;;;;;14.97;84.59;99866.06;5006394;28;19975;-67
2022/09/15 02:16:27;;;;;;;;;;;;;;;15.05;83.73;99869.75;5004650;28;20389;-67
2022/09/15 02:19:00;;;;;;;;;;;;;;;15.03;83.80;99865.56;4999655;28;19926;-67
2022/09/15 02:21:30;;;;;;;;;;;;;;;15.06;82.97;99867.94;5001294;28;20447;-67
2022/09/15 02:24:02;;;;;;;;;;;;;;;14.65;84.66;99862.63;4994663;28;20361;-67
2022/09/15 02:26:29;;;;;;;;;;;;;;;14.31;86.21;99873.25;4982394;28;19934;-67
2022/09/15 02:28:58;;;;;;;;;;;;;;;14.61;85.16;99864.69;5000722;28;20355;-67
2022/09/15 02:31:25;;;;;;;;;;;;;;;14.81;83.93;99874.44;5005031;28;19921;-68
2022/09/15 02:33:53;;;;;;;;;;;;;;;14.68;84.44;99870.28;5005503;28;19957;-67
2022/09/15 02:36:21;;;;;;;;;;;;;;;14.79;84.07;99871.06;5003526;28;19986;-67
2022/09/15 02:38:50;;;;;;;;;;;;;;;14.92;82.97;99863.00;4992443;28;20270;-67
2022/09/15 02:41:16;;;;;;;;;;;;;;;14.89;82.08;99861.44;5001986;28;19968;-67
2022/09/15 02:43:46;;;;;;;;;;;;;;;14.98;81.89;99859.84;5004826;28;20356;-67
2022/09/15 02:46:12;;;;;;;;;;;;;;;15.17;81.05;99864.41;4990349;28;19925;-68
2022/09/15 02:48:38;;;;;;;;;;;;;;;15.14;80.55;99876.06;4987730;28;19975;-67
2022/09/15 02:51:05;;;;;;;;;;;;;;;14.89;80.09;99874.63;4996667;28;19921;-67
2022/09/15 02:53:31;;;;;;;;;;;;;;;14.63;80.01;99883.88;5004011;28;19976;-67
2022/09/15 02:55:59;;;;;;;;;;;;;;;14.94;79.19;99879.53;5006252;28;20330;-67
2022/09/15 02:58:25;;;;;;;;;;;;;;;15.04;78.18;99877.78;5004595;28;20008;-68
2022/09/15 03:00:54;;;;;;;;;;;;;;;15.01;78.21;99878.88;5003485;28;19960;-67
2022/09/15 03:03:21;;;;;;;;;;;;;;;14.90;77.65;99878.94;4999915;28;19929;-67
2022/09/15 03:05:47;;;;;;;;;;;;;;;14.92;78.08;99882.31;5001940;28;19953;-67
2022/09/15 03:08:13;;;;;;;;;;;;;;;14.94;78.42;99876.88;4988760;28;19930;-67
2022/09/15 03:10:39;;;;;;;;;;;;;;;14.98;78.14;99880.94;5001016;28;19928;-67
2022/09/15 03:13:07;;;;;;;;;;;;;;;14.89;79.21;99884.38;5003359;28;19921;-67
2022/09/15 03:15:33;;;;;;;;;;;;;;;14.75;81.33;99877.56;5007861;28;20332;-67
2022/09/15 03:18:01;;;;;;;;;;;;;;;14.69;81.44;99885.16;5008174;28;19957;-67
2022/09/15 03:20:27;;;;;;;;;;;;;;;14.83;81.22;99880.41;4999631;28;20268;-67
2022/09/15 03:22:54;;;;;;;;;;;;;;;14.95;80.55;99884.69;5007048;28;19968;-67
2022/09/15 03:25:20;;;;;;;;;;;;;;;14.94;80.01;99890.09;5008754;28;19922;-67
2022/09/15 03:27:47;;;;;;;;;;;;;;;15.26;78.86;99890.06;5009357;28;19925;-67
2022/09/15 03:30:14;;;;;;;;;;;;;;;15.00;79.60;99900.97;5006778;28;19957;-67
2022/09/15 03:32:41;;;;;;;;;;;;;;;14.98;79.84;99899.44;4992024;28;20390;-67
2022/09/15 03:35:07;;;;;;;;;;;;;;;15.04;79.44;99898.91;4987632;28;19979;-67
2022/09/15 03:37:34;;;;;;;;;;;;;;;14.87;80.57;99900.31;5006513;28;19921;-67
2022/09/15 03:40:00;;;;;;;;;;;;;;;14.97;80.21;99900.38;5007990;28;20362;-67
2022/09/15 03:42:26;;;;;;;;;;;;;;;15.04;79.43;99893.63;5008493;28;19922;-67
2022/09/15 03:44:52;;;;;;;;;;;;;;;15.09;79.08;99892.28;5008343;28;19971;-67
2022/09/15 03:47:20;;;;;;;;;;;;;;;15.12;78.98;99888.53;5006060;28;20411;-67
2022/09/15 03:49:46;;;;;;;;;;;;;;;15.27;78.50;99896.97;5007185;28;19972;-67
2022/09/15 03:52:12;;;;;;;;;;;;;;;15.13;79.02;99894.66;5008691;28;20623;-66
2022/09/15 03:54:38;;;;;;;;;;;;;;;14.91;79.84;99893.81;5005483;28;20332;-66
2022/09/15 03:57:05;;;;;;;;;;;;;;;15.02;78.81;99891.13;5007868;28;20370;-67
2022/09/15 03:59:31;;;;;;;;;;;;;;;14.83;79.91;99884.84;5009101;28;19921;-67
2022/09/15 04:01:57;;;;;;;;;;;;;;;14.64;81.18;99890.81;5029065;28;20015;-66
2022/09/15 04:04:25;;;;;;;;;;;;;;;14.70;80.98;99885.03;5006288;28;20439;-66
2022/09/15 04:06:52;;;;;;;;;;;;;;;14.84;80.02;99892.66;5008052;28;19975;-66
2022/09/15 04:09:18;;;;;;;;;;;;;;;14.75;80.24;99890.75;5005782;28;20325;-67
2022/09/15 04:11:44;;;;;;;;;;;;;;;14.63;81.30;99883.03;5007260;28;20369;-66
2022/09/15 04:14:10;;;;;;;;;;;;;;;14.49;81.86;99884.97;5007008;28;20003;-67
2022/09/15 04:16:37;;;;;;;;;;;;;;;14.58;81.60;99886.03;5005648;28;20592;-67
2022/09/15 04:19:03;;;;;;;;;;;;;;;14.77;80.67;99890.66;5007344;28;19925;-67
2022/09/15 04:21:31;;;;;;;;;;;;;;;14.86;79.80;99889.88;5008617;28;19963;-67
2022/09/15 04:23:57;;;;;;;;;;;;;;;14.92;79.71;99892.03;5005967;28;20300;-67
2022/09/15 04:26:25;;;;;;;;;;;;;;;14.87;79.55;99896.84;5006156;28;19925;-67
2022/09/15 04:28:52;;;;;;;;;;;;;;;14.89;79.46;99887.00;4989008;28;19976;-67
2022/09/15 04:31:18;;;;;;;;;;;;;;;15.01;78.14;99878.88;4987376;28;20378;-67
2022/09/15 04:33:44;;;;;;;;;;;;;;;14.67;79.72;99887.91;4988023;28;19968;-67
2022/09/15 04:36:12;;;;;;;;;;;;;;;14.62;79.82;99890.13;4997346;28;19983;-66
2022/09/15 04:38:40;;;;;;;;;;;;;;;14.26;81.09;99883.34;5007132;28;19969;-67
2022/09/15 04:41:07;;;;;;;;;;;;;;;14.00;82.65;99888.06;5004938;28;19963;-66
2022/09/15 04:43:33;;;;;;;;;;;;;;;14.00;83.23;99884.59;4999801;28;20369;-67
2022/09/15 04:46:00;;;;;;;;;;;;;;;14.24;80.85;99885.25;5003254;28;19972;-66
2022/09/15 04:48:26;;;;;;;;;;;;;;;14.09;81.36;99881.22;5006138;28;19925;-67
2022/09/15 04:50:53;;;;;;;;;;;;;;;13.93;82.30;99891.31;5006478;28;19944;-67
2022/09/15 04:53:19;;;;;;;;;;;;;;;14.24;80.71;99885.25;5005103;28;20373;-67
2022/09/15 04:55:47;;;;;;;;;;;;;;;14.21;81.18;99890.78;4996423;28;19957;-67
2022/09/15 04:58:13;;;;;;;;;;;;;;;14.03;82.16;99886.97;4990433;28;20348;-67
2022/09/15 05:00:42;;;;;;;;;;;;;;;14.08;81.79;99890.06;4988673;28;19976;-66
2022/09/15 05:03:08;;;;;;;;;;;;;;;14.37;80.84;99893.91;5011130;28;19936;-67
2022/09/15 05:05:34;;;;;;;;;;;;;;;14.34;80.58;99888.84;5006535;28;19921;-67
2022/09/15 05:08:01;;;;;;;;;;;;;;;14.28;80.30;99888.50;5005135;28;20293;-67
2022/09/15 05:10:27;;;;;;;;;;;;;;;13.94;81.61;99887.69;5007322;28;20344;-67
2022/09/15 05:12:54;;;;;;;;;;;;;;;13.89;82.84;99895.16;5008369;28;19925;-67
2022/09/15 05:15:21;;;;;;;;;;;;;;;13.81;83.24;99887.00;5003134;28;20617;-67
2022/09/15 05:17:48;;;;;;;;;;;;;;;14.03;82.61;99905.44;4998173;28;20301;-66
2022/09/15 05:20:14;;;;;;;;;;;;;;;14.31;81.61;99893.50;5007116;28;19967;-67
2022/09/15 05:22:41;;;;;;;;;;;;;;;14.56;80.45;99903.78;5005103;28;20435;-67
2022/09/15 05:25:07;;;;;;;;;;;;;;;14.61;81.12;99905.09;5006406;28;19957;-67
2022/09/15 05:27:33;;;;;;;;;;;;;;;14.80;81.32;99898.31;5006165;28;19932;-67
2022/09/15 05:30:01;;;;;;;;;;;;;;;14.87;81.42;99900.31;5004234;28;19925;-67
2022/09/15 05:32:27;;;;;;;;;;;;;;;15.25;80.70;99894.50;5006403;28;19948;-68
2022/09/15 05:34:53;;;;;;;;;;;;;;;15.70;78.33;99891.56;5005125;28;20447;-67
2022/09/15 05:37:19;;;;;;;;;;;;;;;15.64;78.23;99900.00;5000242;28;19921;-67
2022/09/15 05:39:46;;;;;;;;;;;;;;;15.89;76.57;99905.69;4997835;28;20339;-67
2022/09/15 05:42:13;;;;;;;;;;;;;;;16.07;76.57;99903.28;5001456;28;20020;-67
2022/09/15 05:44:39;;;;;;;;;;;;;;;16.14;76.55;99911.50;4991500;28;19945;-67
2022/09/15 05:47:06;;;;;;;;;;;;;;;16.39;75.12;99900.44;5002920;28;19922;-66
2022/09/15 05:49:33;;;;;;;;;;;;;;;16.51;74.69;99909.94;4994950;28;20185;-66
2022/09/15 05:51:59;;;;;;;;;;;;;;;16.60;74.54;99917.06;5001101;28;19956;-66
2022/09/15 05:54:26;;;;;;;;;;;;;;;16.61;74.64;99913.44;5006616;28;20079;-66
2022/09/15 05:56:52;;;;;;;;;;;;;;;16.66;73.81;99915.69;5004892;28;19981;-67
2022/09/15 05:59:18;;;;;;;;;;;;;;;16.73;73.09;99909.69;5006042;28;19921;-67
2022/09/15 06:01:45;;;;;;;;;;;;;;;16.85;73.20;99913.88;5006050;28;19921;-67
2022/09/15 06:04:12;;;;;;;;;;;;;;;17.15;72.43;99912.03;5003973;28;20004;-67
2022/09/15 06:06:39;;;;;;;;;;;;;;;17.61;69.98;99906.84;5005233;28;19971;-67
2022/09/15 06:09:05;;;;;;;;;;;;;;;17.79;69.94;99906.91;5004546;28;19984;-66
2022/09/15 06:11:33;;;;;;;;;;;;;;;17.21;71.66;99914.16;5005471;28;19929;-66
2022/09/15 06:14:00;;;;;;;;;;;;;;;17.60;70.46;99913.13;5005667;28;19960;-66
2022/09/15 06:16:26;;;;;;;;;;;;;;;17.53;70.78;99918.13;5004154;28;19972;-67
2022/09/15 06:18:52;;;;;;;;;;;;;;;17.81;69.76;99907.63;5005590;28;19960;-67
2022/09/15 06:21:21;;;;;;;;;;;;;;;17.81;68.61;99916.38;5006351;28;19921;-66
2022/09/15 06:23:52;;;;;;;;;;;;;;;18.43;68.71;99912.19;5005675;28;20029;-66
2022/09/15 06:26:19;;;;;;;;;;;;;;;19.11;65.36;99916.03;4997625;28;19921;-67
2022/09/15 06:28:48;;;;;;;;;;;;;;;19.16;64.72;99905.78;5002639;28;20060;-67
2022/09/15 06:31:14;;;;;;;;;;;;;;;19.02;65.53;99909.00;5005015;28;19928;-67
2022/09/15 06:33:41;;;;;;;;;;;;;;;18.69;68.07;99907.03;5005963;28;19921;-67
2022/09/15 06:36:09;;;;;;;;;;;;;;;19.26;65.08;99901.22;5004197;28;19921;-67
2022/09/15 06:38:37;;;;;;;;;;;;;;;19.11;64.88;99897.44;4997399;28;20310;-67
2022/09/15 06:41:04;;;;;;;;;;;;;;;19.17;64.60;99907.47;4972058;28;19936;-67
2022/09/15 06:43:31;;;;;;;;;;;;;;;19.82;63.54;99907.91;4969821;28;19977;-67
2022/09/15 06:46:02;;;;;;;;;;;;;;;19.38;64.83;99910.59;4989598;28;20286;-67
2022/09/15 06:48:28;;;;;;;;;;;;;;;19.04;65.70;99914.97;5009433;28;20016;-68
2022/09/15 06:50:55;;;;;;;;;;;;;;;19.16;65.38;99912.91;5008372;28;19975;-69
2022/09/15 06:53:21;;;;;;;;;;;;;;;18.68;66.33;99918.63;5008831;28;19921;-68
2022/09/15 06:55:49;;;;;;;;;;;;;;;18.60;67.07;99916.72;5010415;28;19922;-68
2022/09/15 06:58:15;;;;;;;;;;;;;;;17.91;68.86;99924.31;5007845;28;19922;-68
2022/09/15 07:00:42;;;;;;;;;;;;;;;18.08;68.76;99928.00;5009937;28;19952;-69
2022/09/15 07:03:08;;;;;;;;;;;;;;;17.70;70.41;99923.72;5008067;28;19921;-68
2022/09/15 07:05:34;;;;;;;;;;;;;;;17.65;72.32;99920.66;5007537;28;20328;-68
2022/09/15 07:08:00;;;;;;;;;;;;;;;17.94;71.05;99926.69;5005182;28;19948;-68
2022/09/15 07:10:26;;;;;;;;;;;;;;;17.54;71.80;99932.22;5001879;28;19972;-68
2022/09/15 07:12:54;;;;;;;;;;;;;;;17.31;72.58;99939.66;5007342;28;20373;-69
2022/09/15 07:15:22;;;;;;;;;;;;;;;17.16;73.19;99938.41;5007920;28;20003;-68
2022/09/15 07:17:48;;;;;;;;;;;;;;;17.17;73.41;99944.53;5009393;28;20289;-68
2022/09/15 07:20:14;;;;;;;;;;;;;;;17.21;72.96;99938.00;5006935;28;20011;-68
2022/09/15 07:22:40;;;;;;;;;;;;;;;17.22;73.67;99939.69;5008237;28;19952;-68
2022/09/15 07:25:07;;;;;;;;;;;;;;;17.27;73.42;99932.13;5007774;28;19961;-68
2022/09/15 07:27:33;;;;;;;;;;;;;;;17.41;74.09;99929.88;5008943;28;20270;-68
2022/09/15 07:30:02;;;;;;;;;;;;;;;17.70;72.26;99924.53;5009218;28;19966;-69
2022/09/15 07:32:28;;;;;;;;;;;;;;;17.65;72.10;99928.59;5008356;28;19922;-69
2022/09/15 07:34:55;;;;;;;;;;;;;;;17.76;72.44;99928.44;5008632;28;19980;-68
2022/09/15 07:37:21;;;;;;;;;;;;;;;17.94;71.45;99921.38;5009109;28;19937;-68
2022/09/15 07:39:47;;;;;;;;;;;;;;;17.84;72.80;99931.19;5006468;28;19925;-69
2022/09/15 07:42:14;;;;;;;;;;;;;;;17.82;70.78;99938.44;4985351;28;19972;-69
2022/09/15 07:44:40;;;;;;;;;;;;;;;17.60;72.13;99947.56;5006460;28;21338;-69
2022/09/15 07:47:08;;;;;;;;;;;;;;;17.89;72.14;99950.13;5007095;28;19961;-68
2022/09/15 07:49:34;;;;;;;;;;;;;;;17.82;71.03;99951.69;5008373;28;19952;-69
2022/09/15 07:52:01;;;;;;;;;;;;;;;18.26;71.23;99958.09;5004851;28;19925;-70
2022/09/15 07:54:27;;;;;;;;;;;;;;;18.12;70.48;99959.41;4997264;28;19953;-69
2022/09/15 07:56:53;;;;;;;;;;;;;;;18.17;69.24;99961.63;5008230;28;20387;-69
2022/09/15 07:59:19;;;;;;;;;;;;;;;18.00;70.68;99963.22;5007050;28;19952;-69
2022/09/15 08:01:46;;;;;;;;;;;;;;;17.56;72.53;99967.38;5008916;28;19953;-69
2022/09/15 08:04:13;;;;;;;;;;;;;;;17.74;71.76;99968.34;5008196;28;20320;-69
2022/09/15 08:06:39;;;;;;;;;;;;;;;18.04;71.21;99969.06;5008295;28;19976;-69
2022/09/15 08:09:06;;;;;;;;;;;;;;;18.11;70.44;99965.69;5008002;28;19983;-69
2022/09/15 08:11:32;;;;;;;;;;;;;;;18.10;71.18;99979.13;5008671;28;20427;-69
2022/09/15 08:14:00;;;;;;;;;;;;;;;18.38;70.24;99965.72;5005883;28;19921;-69
2022/09/15 08:16:27;;;;;;;;;;;;;;;18.51;69.45;99969.84;4993544;28;20326;-69
2022/09/15 08:18:54;;;;;;;;;;;;;;;18.59;69.65;99970.00;4998831;28;20377;-69
2022/09/15 08:21:22;;;;;;;;;;;;;;;18.46;70.66;99971.13;4997982;28;20009;-69
2022/09/15 08:23:50;;;;;;;;;;;;;;;18.54;70.46;99973.09;4985517;28;19922;-69
2022/09/15 08:26:16;;;;;;;;;;;;;;;18.84;68.78;99975.41;4993669;28;20012;-70
2022/09/15 08:28:42;;;;;;;;;;;;;;;18.78;69.38;99983.13;5006334;28;19926;-69
2022/09/15 08:31:10;;;;;;;;;;;;;;;19.00;69.00;99982.69;5007917;28;20456;-69
2022/09/15 08:33:36;;;;;;;;;;;;;;;19.09;68.89;99979.13;5007727;28;19991;-69
2022/09/15 08:36:04;;;;;;;;;;;;;;;18.80;69.28;99981.16;5006325;28;19930;-69
2022/09/15 08:38:32;;;;;;;;;;;;;;;18.79;67.87;99984.81;4998986;28;19948;-69
2022/09/15 08:41:00;;;;;;;;;;;;;;;19.08;67.33;99987.25;4988104;28;19932;-69
2022/09/15 08:43:27;;;;;;;;;;;;;;;19.00;68.23;99985.34;4987396;28;19926;-70
2022/09/15 08:45:58;;;;;;;;;;;;;;;19.30;66.16;99995.59;5002457;28;20018;-69
2022/09/15 08:48:27;;;;;;;;;;;;;;;18.85;66.76;99989.50;4996077;28;20336;-69
2022/09/15 08:50:56;;;;;;;;;;;;;;;18.90;66.67;99984.59;4999816;28;19921;-69
2022/09/15 08:53:25;;;;;;;;;;;;;;;19.24;66.76;99976.78;4993128;28;20432;-69
2022/09/15 08:55:54;;;;;;;;;;;;;;;19.24;67.13;99984.75;4998800;28;19956;-69
2022/09/15 08:58:21;;;;;;;;;;;;;;;19.67;64.65;99986.63;5001731;28;19925;-69
2022/09/15 09:00:50;;;;;;;;;;;;;;;19.35;65.94;99988.00;5001187;28;20424;-69
2022/09/15 09:03:29;;;;;;;;;;;;;;;19.33;64.72;99983.81;5002781;28;19949;-69
2022/09/15 09:05:57;;;;;;;;;;;;;;;19.19;64.82;99985.19;4997923;28;19976;-69
2022/09/15 09:08:31;;;;;;;;;;;;;;;19.42;65.08;99983.78;5001607;28;19925;-69
2022/09/15 09:11:00;;;;;;;;;;;;;;;19.18;65.78;99996.00;5000809;28;20458;-69
2022/09/15 09:13:31;;;;;;;;;;;;;;;18.91;65.45;99996.88;4999701;28;19921;-69
2022/09/15 09:16:05;;;;;;;;;;;;;;;18.95;63.94;99998.25;5000194;28;19922;-68
2022/09/15 09:18:45;;;;;;;;;;;;;;;18.83;64.41;99994.16;5001289;28;20007;-69
2022/09/15 09:21:18;;;;;;;;;;;;;;;18.89;63.29;99996.19;4999452;28;20285;-68
2022/09/15 09:23:48;;;;;;;;;;;;;;;18.83;63.94;99994.16;5006241;28;19922;-69
2022/09/15 09:26:16;;;;;;;;;;;;;;;18.99;64.02;99994.31;5005855;28;19921;-69
2022/09/15 09:28:47;;;;;;;;;;;;;;;18.99;63.77;99993.47;4992196;28;19921;-69
2022/09/15 09:31:17;;;;;;;;;;;;;;;19.12;62.95;99991.28;4986147;28;19933;-69
2022/09/15 09:33:44;;;;;;;;;;;;;;;19.29;63.06;99993.13;5001553;28;19991;-69
2022/09/15 09:36:11;;;;;;;;;;;;;;;19.34;63.18;99988.16;4997272;28;19921;-69
2022/09/15 09:38:39;;;;;;;;;;;;;;;19.28;63.34;99988.78;5005568;28;20002;-69
2022/09/15 09:41:11;;;;;;;;;;;;;;;19.30;63.86;99984.97;5005311;28;20007;-69
2022/09/15 09:43:39;;;;;;;;;;;;;;;19.10;64.00;99986.13;4997242;28;20193;-69
2022/09/15 09:46:10;;;;;;;;;;;;;;;19.40;61.98;99984.91;5006748;28;19977;-69
2022/09/15 09:48:36;;;;;;;;;;;;;;;19.39;61.00;99975.25;5005587;28;19979;-69
2022/09/15 09:51:02;;;;;;;;;;;;;;;19.27;62.28;99982.63;5002758;28;19922;-69
2022/09/15 09:53:29;;;;;;;;;;;;;;;19.77;61.04;99984.72;5004995;28;19957;-69
2022/09/15 09:56:14;;;;;;;;;;;;;;;19.98;61.02;99984.34;5005514;28;19933;-69
2022/09/15 09:58:42;;;;;;;;;;;;;;;19.59;62.29;99992.72;5005848;28;19921;-69
2022/09/15 10:01:10;;;;;;;;;;;;;;;19.57;61.93;99993.84;5003732;28;19922;-69
2022/09/15 10:03:36;;;;;;;;;;;;;;;19.60;61.90;99977.59;4989496;28;19934;-69
2022/09/15 10:06:04;;;;;;;;;;;;;;;19.88;59.18;99987.13;5007001;28;19971;-69
2022/09/15 10:08:30;;;;;;;;;;;;;;;20.19;61.36;99974.13;4992275;28;19968;-69
2022/09/15 10:11:00;;;;;;;;;;;;;;;19.71;60.73;99972.84;4994019;28;19972;-69
2022/09/15 10:13:26;;;;;;;;;;;;;;;19.74;58.43;99979.69;4996264;28;20392;-69
2022/09/15 10:15:55;;;;;;;;;;;;;;;19.86;59.81;99975.78;5004870;28;19921;-69
2022/09/15 10:18:30;;;;;;;;;;;;;;;19.54;59.48;99975.56;4998106;28;20007;-69
2022/09/15 10:20:57;;;;;;;;;;;;;;;19.40;61.12;99968.94;4996982;28;19988;-69
2022/09/15 10:23:24;;;;;;;;;;;;;;;19.35;60.62;99964.09;4992987;28;20440;-69
2022/09/15 10:25:51;;;;;;;;;;;;;;;19.74;60.79;99969.88;4995682;28;20293;-69
2022/09/15 10:28:18;;;;;;;;;;;;;;;20.29;58.66;99965.06;5002826;28;20019;-69
2022/09/15 10:30:58;;;;;;;;;;;;;;;20.42;59.31;99969.94;5001914;28;19921;-69
2022/09/15 10:33:25;;;;;;;;;;;;;;;19.83;59.39;99981.41;4999256;28;19922;-69
2022/09/15 10:35:51;;;;;;;;;;;;;;;19.69;58.85;99971.34;5005358;28;19921;-69
2022/09/15 10:38:21;;;;;;;;;;;;;;;19.76;59.33;99972.41;5004426;28;19925;-69
2022/09/15 10:40:49;;;;;;;;;;;;;;;20.05;59.68;99967.56;5003502;28;20401;-69
2022/09/15 10:43:34;;;;;;;;;;;;;;;19.96;57.82;99976.50;5005530;28;20516;-68
2022/09/15 10:46:04;;;;;;;;;;;;;;;19.57;58.00;99980.56;5003814;28;19921;-68
2022/09/15 10:48:39;;;;;;;;;;;;;;;19.65;59.80;99975.31;4999031;28;20373;-68
2022/09/15 10:51:16;;;;;;;;;;;;;;;20.10;56.85;99970.56;4996823;28;20336;-68
2022/09/15 10:53:53;;;;;;;;;;;;;;;20.21;55.02;99964.97;5006244;28;19928;-68
2022/09/15 10:56:24;;;;;;;;;;;;;;;20.38;55.51;99972.09;5001672;28;19929;-68
2022/09/15 10:59:05;;;;;;;;;;;;;;;21.00;55.11;99969.91;5004130;28;20369;-68
2022/09/15 11:01:43;;;;;;;;;;;;;;;21.45;54.86;99973.97;4986985;28;20348;-69
2022/09/15 11:04:24;;;;;;;;;;;;;;;21.40;53.30;99978.97;4985551;28;20572;-68
2022/09/15 11:06:56;;;;;;;;;;;;;;;21.14;53.49;99977.28;4978514;28;19922;-69
2022/09/15 11:09:24;;;;;;;;;;;;;;;20.67;52.09;99977.00;4986811;28;19921;-69
2022/09/15 11:11:59;;;;;;;;;;;;;;;20.77;53.04;99984.84;4993664;28;20549;-69
2022/09/15 11:14:38;;;;;;;;;;;;;;;20.59;52.83;99974.31;5003645;28;19921;-68
2022/09/15 11:17:12;;;;;;;;;;;;;;;20.44;52.38;99986.56;5004974;28;19957;-68
2022/09/15 11:19:49;;;;;;;;;;;;;;;19.81;51.25;99984.22;5004426;28;19929;-68
2022/09/15 11:22:18;;;;;;;;;;;;;;;19.51;51.19;99983.84;5004996;28;20020;-68
2022/09/15 11:24:46;;;;;;;;;;;;;;;19.56;49.48;99981.53;5007004;28;19965;-68
2022/09/15 11:27:16;;;;;;;;;;;;;;;19.66;49.64;99977.78;5007434;28;20007;-69
2022/09/15 11:29:56;;;;;;;;;;;;;;;19.75;50.12;99979.53;5006684;28;19975;-69
2022/09/15 11:32:26;;;;;;;;;;;;;;;20.15;49.49;99976.28;5007481;28;19932;-69
2022/09/15 11:34:55;;;;;;;;;;;;;;;20.38;50.30;99972.09;5006442;28;20329;-69
2022/09/15 11:37:23;;;;;;;;;;;;;;;20.57;49.49;99980.81;5008035;28;19928;-69
2022/09/15 11:39:54;;;;;;;;;;;;;;;20.48;47.04;99971.13;5006239;28;20212;-69
2022/09/15 11:42:24;;;;;;;;;;;;;;;20.15;47.83;99976.28;5002595;28;19964;-69
2022/09/15 11:44:51;;;;;;;;;;;;;;;19.99;48.58;99983.34;5006659;28;19932;-69
2022/09/15 11:47:25;;;;;;;;;;;;;;;20.00;49.07;99969.88;5008637;28;19971;-69
2022/09/15 11:49:55;;;;;;;;;;;;;;;20.24;48.09;99966.50;5002688;28;19960;-69
2022/09/15 11:52:27;;;;;;;;;;;;;;;20.71;49.76;99966.88;5007449;28;20020;-68
2022/09/15 11:54:58;;;;;;;;;;;;;;;21.11;47.25;99977.63;5005868;28;20431;-68
2022/09/15 11:57:26;;;;;;;;;;;;;;;20.77;46.43;99974.19;4985105;28;20319;-68
2022/09/15 11:59:57;;;;;;;;;;;;;;;20.81;46.83;99975.53;4999381;28;19922;-68
2022/09/15 12:02:28;;;;;;;;;;;;;;;21.02;46.63;99975.94;5006659;28;19927;-68
2022/09/15 12:04:58;;;;;;;;;;;;;;;20.84;47.03;99975.25;5005596;28;20374;-69
2022/09/15 12:07:27;;;;;;;;;;;;;;;20.69;46.51;99974.19;5008755;28;19960;-69
2022/09/15 12:09:54;;;;;;;;;;;;;;;21.00;47.31;99972.59;5006861;28;20381;-69
2022/09/15 12:12:21;;;;;;;;;;;;;;;21.31;45.75;99965.66;5006350;28;20285;-69
2022/09/15 12:14:49;;;;;;;;;;;;;;;21.46;46.72;99967.66;5007196;28;20435;-69
2022/09/15 12:17:18;;;;;;;;;;;;;;;21.12;45.77;99952.66;5008567;28;19925;-69
2022/09/15 12:19:51;;;;;;;;;;;;;;;21.92;47.11;99961.59;5005857;28;19960;-68
2022/09/15 12:22:20;;;;;;;;;;;;;;;22.00;44.78;99950.91;5007266;28;19922;-68
2022/09/15 12:24:51;;;;;;;;;;;;;;;22.00;45.42;99952.75;5005441;28;20393;-69
2022/09/15 12:27:18;;;;;;;;;;;;;;;21.77;43.61;99968.59;5008256;28;20475;-69
2022/09/15 12:29:48;;;;;;;;;;;;;;;21.30;45.77;99982.66;5006497;28;19934;-69
2022/09/15 12:32:25;;;;;;;;;;;;;;;21.11;46.24;99974.13;5004309;28;20549;-69
2022/09/15 12:35:00;;;;;;;;;;;;;;;21.24;46.70;99978.00;5006236;28;20316;-69
2022/09/15 12:37:29;;;;;;;;;;;;;;;21.36;46.27;99973.13;5004966;28;19921;-69
2022/09/15 12:39:57;;;;;;;;;;;;;;;21.67;47.48;99973.28;5006415;28;20381;-69
2022/09/15 12:42:24;;;;;;;;;;;;;;;21.80;45.88;99969.09;4996750;28;19968;-69
2022/09/15 12:44:52;;;;;;;;;;;;;;;21.82;44.92;99967.09;4992713;28;19937;-69
2022/09/15 12:47:24;;;;;;;;;;;;;;;21.94;45.96;99962.28;5007269;28;19921;-70
2022/09/15 12:49:53;;;;;;;;;;;;;;;22.03;44.78;99958.56;5007596;28;20004;-70
2022/09/15 12:52:22;;;;;;;;;;;;;;;22.55;47.34;99974.91;5005646;28;19922;-70
2022/09/15 12:54:52;;;;;;;;;;;;;;;22.36;43.83;99972.63;5006826;28;19972;-70